Time,TemperatureF,DewpointF,PressureIn,WindDirection,WindDirectionDegrees,WindSpeedMPH,WindSpeedGustMPH,Humidity,HourlyPrecipIn,Conditions,Clouds,dailyrainin,SoftwareType,DateUTC
2015-03-02 00:12:00,44.0,40.0,29.96,North,-9999,0.0,2.0,85,-99.99,,,-99.99,,2015-03-02 08:12:00,
2015-03-02 00:20:00,44.0,40.0,29.95,ESE,110,2.0,3.0,85,-99.99,,,-99.99,,2015-03-02 08:20:00,
2015-03-02 01:11:00,44.0,40.0,29.95,ESE,110,2.0,3.0,85,-99.99,,,-99.99,,2015-03-02 09:11:00,
2015-03-02 01:20:00,43.0,41.0,29.95,ESE,115,1.0,3.0,92,-99.99,,,-99.99,,2015-03-02 09:20:00,
2015-03-02 02:10:00,43.0,42.0,29.95,SE,130,2.0,3.0,96,-99.99,,,-99.99,,2015-03-02 10:10:00,
2015-03-02 02:13:00,43.0,41.0,29.95,ESE,115,1.0,3.0,92,-99.99,,,-99.99,,2015-03-02 10:13:00,
2015-03-02 03:20:00,43.0,42.0,29.94,SE,125,1.0,3.0,96,-99.99,,,-99.99,,2015-03-02 11:20:00,
2015-03-02 04:12:00,43.0,42.0,29.94,SE,125,1.0,3.0,96,-99.99,,,-99.99,,2015-03-02 12:12:00,
2015-03-02 04:20:00,43.0,42.0,29.93,NW,310,1.0,3.0,96,-99.99,,,-99.99,,2015-03-02 12:20:00,
2015-03-02 05:12:00,43.0,42.0,29.93,NW,310,1.0,3.0,96,-99.99,,,-99.99,,2015-03-02 13:12:00,
2015-03-02 05:20:00,42.0,42.0,29.94,SSE,160,1.0,2.0,100,-99.99,,,-99.99,,2015-03-02 13:20:00,
2015-03-02 06:11:00,42.0,42.0,29.94,SSE,160,1.0,2.0,100,-99.99,,,-99.99,,2015-03-02 14:11:00,
2015-03-02 06:20:00,43.0,43.0,29.95,WNW,295,2.0,6.0,100,-99.99,,,-99.99,,2015-03-02 14:20:00,
2015-03-02 07:12:00,43.0,43.0,29.95,WNW,295,2.0,6.0,100,-99.99,,,-99.99,,2015-03-02 15:12:00,
2015-03-02 07:20:00,42.0,-99.9,29.95,WNW,285,1.0,3.0,-999,-99.99,,,-99.99,,2015-03-02 15:20:00,
2015-03-02 08:13:00,42.0,-99.9,29.95,WNW,285,1.0,3.0,-999,-99.99,,,-99.99,,2015-03-02 16:13:00,
2015-03-02 08:20:00,43.0,43.0,29.97,WNW,295,5.0,7.0,100,-99.99,,,-99.99,,2015-03-02 16:20:00,
2015-03-02 09:12:00,43.0,43.0,29.97,WNW,295,5.0,7.0,100,-99.99,,,-99.99,,2015-03-02 17:12:00,
2015-03-02 09:20:00,46.0,44.0,29.98,West,280,3.0,9.0,92,-99.99,,,-99.99,,2015-03-02 17:20:00,
2015-03-02 10:13:00,46.0,44.0,29.98,West,280,3.0,9.0,92,-99.99,,,-99.99,,2015-03-02 18:13:00,
2015-03-02 10:20:00,48.0,43.0,29.98,West,275,7.0,10.0,82,-99.99,,,-99.99,,2015-03-02 18:20:00,
2015-03-02 11:12:00,48.0,43.0,29.98,West,275,7.0,10.0,82,-99.99,,,-99.99,,2015-03-02 19:12:00,
2015-03-02 11:20:00,50.0,43.0,29.98,West,270,8.0,12.0,76,-99.99,,,-99.99,,2015-03-02 19:20:00,
2015-03-02 12:12:00,50.0,43.0,29.98,West,270,8.0,12.0,76,-99.99,,,-99.99,,2015-03-02 20:12:00,
2015-03-02 12:20:00,53.0,42.0,29.98,West,280,7.0,13.0,66,-99.99,,,-99.99,,2015-03-02 20:20:00,
2015-03-02 13:11:00,53.0,42.0,29.98,West,280,7.0,13.0,66,-99.99,,,-99.99,,2015-03-02 21:11:00,
2015-03-02 13:20:00,55.0,41.0,29.96,WNW,290,7.0,14.0,59,-99.99,,,-99.99,,2015-03-02 21:20:00,
2015-03-02 14:13:00,55.0,41.0,29.96,WNW,290,7.0,14.0,59,-99.99,,,-99.99,,2015-03-02 22:13:00,
2015-03-02 14:20:00,55.0,39.0,29.95,West,270,9.0,16.0,54,-99.99,,,-99.99,,2015-03-02 22:20:00,
2015-03-02 15:12:00,55.0,39.0,29.95,West,270,9.0,16.0,54,-99.99,,,-99.99,,2015-03-02 23:12:00,
2015-03-02 15:20:00,56.0,38.0,29.95,WNW,290,8.0,16.0,50,-99.99,,,-99.99,,2015-03-02 23:20:00,
2015-03-02 16:12:00,56.0,38.0,29.95,WNW,290,8.0,16.0,50,-99.99,,,-99.99,,2015-03-03 00:12:00,
2015-03-02 16:20:00,55.0,34.0,29.96,WNW,300,7.0,18.0,44,-99.99,,,-99.99,,2015-03-03 00:20:00,
2015-03-02 17:12:00,55.0,34.0,29.96,WNW,300,7.0,18.0,44,-99.99,,,-99.99,,2015-03-03 01:12:00,
2015-03-02 17:20:00,54.0,32.0,29.98,NW,310,3.0,9.0,42,-99.99,,,-99.99,,2015-03-03 01:20:00,
2015-03-02 18:12:00,54.0,32.0,29.98,NW,310,3.0,9.0,42,-99.99,,,-99.99,,2015-03-03 02:12:00,
2015-03-02 18:20:00,50.0,29.0,30.01,WNW,300,5.0,12.0,44,-99.99,,,-99.99,,2015-03-03 02:20:00,
2015-03-02 19:12:00,50.0,29.0,30.01,WNW,300,5.0,12.0,44,-99.99,,,-99.99,,2015-03-03 03:12:00,